Time;durP1;ratioP1;P1;durP2;ratioP2;P2;SDS_P1;SDS_P2;PMS_P1;PMS_P2;Temp;Humidity;BMP_temperature;BMP_pressure;BME280_temperature;BME280_humidity;BME280_pressure;Samples;Min_cycle;Max_cycle;Signal;HPM_P1;HPM_P2
2022/03/03 00:14:34;;;;;;;4.35;3.10;;;21.50;43.00;;;;;;104557978;28;20056;-83
2022/03/03 01:04:34;;;;;;;10.88;5.18;;;20.70;42.60;;;;;;104441546;28;20059;-81
2022/03/03 01:54:35;;;;;;;9.00;5.90;;;19.90;42.40;;;;;;104457981;23;20504;-84
2022/03/03 02:44:35;;;;;;;7.30;5.10;;;19.50;41.70;;;;;;104431448;28;20034;-81
2022/03/03 03:34:36;;;;;;;8.23;5.32;;;19.20;41.90;;;;;;104315418;28;20053;-81
2022/03/03 04:24:37;;;;;;;8.95;5.88;;;18.80;41.30;;;;;;104261234;28;20045;-79
2022/03/03 05:14:37;;;;;;;7.50;5.80;;;18.50;40.70;;;;;;104245635;28;20116;-81
2022/03/03 06:04:39;;;;;;;6.15;4.45;;;18.40;39.50;;;;;;104285551;28;20034;-86
2022/03/03 06:54:44;;;;;;;4.27;3.33;;;19.50;36.90;;;;;;104300111;28;20229;-83
2022/03/03 07:44:46;;;;;;;6.50;4.13;;;19.30;38.10;;;;;;104173553;23;20057;-80
2022/03/03 08:35:07;;;;;;;3.50;2.87;;;19.40;38.80;;;;;;104149675;28;20129;-78
2022/03/03 09:25:08;;;;;;;12.93;3.30;;;19.20;39.70;;;;;;104362995;28;20040;-80
2022/03/03 10:15:13;;;;;;;9.60;4.30;;;19.60;40.90;;;;;;104299802;28;20110;-79
2022/03/03 11:05:15;;;;;;;34.07;11.23;;;21.90;37.30;;;;;;104405595;28;20044;-81
2022/03/03 11:55:29;;;;;;;16.23;6.20;;;22.50;38.40;;;;;;104194662;28;20037;-82
2022/03/03 12:45:31;;;;;;;23.17;8.23;;;22.60;36.00;;;;;;104184741;28;20096;-80
2022/03/03 13:35:40;;;;;;;9.03;5.27;;;21.50;38.40;;;;;;104225862;28;20060;-83
2022/03/03 14:25:40;;;;;;;10.53;4.50;;;21.10;36.10;;;;;;104396748;28;20049;-81
2022/03/03 14:59:46;;;;;;;9.93;3.15;;;20.10;37.40;;;;;;1059070;27;20643;-83
2022/03/03 15:00:19;;;;;;;10.95;2.88;;;19.60;38.30;;;;;;1055933;28;20055;-84
2022/03/03 15:00:50;;;;;;;12.70;3.40;;;19.60;38.20;;;;;;1056418;28;20108;-82
2022/03/03 15:01:21;;;;;;;8.82;3.33;;;19.60;37.30;;;;;;1058531;28;20016;-86
2022/03/03 15:01:51;;;;;;;4.35;2.50;;;19.50;36.80;;;;;;1059250;28;20024;-83
2022/03/03 15:02:22;;;;;;;9.50;3.13;;;19.50;37.40;;;;;;1059979;28;20047;-87
2022/03/03 15:02:53;;;;;;;7.78;2.80;;;19.50;37.20;;;;;;1057980;28;20031;-83
2022/03/03 15:03:24;;;;;;;6.45;3.35;;;19.40;37.80;;;;;;1059140;28;20024;-81
2022/03/03 15:04:00;;;;;;;9.68;3.70;;;19.40;38.10;;;;;;1059523;28;20096;-81
2022/03/03 15:04:31;;;;;;;8.20;3.35;;;19.40;38.30;;;;;;1057902;28;20134;-82
2022/03/03 15:05:03;;;;;;;6.18;2.83;;;19.40;38.40;;;;;;1055167;28;20033;-83
2022/03/03 15:05:33;;;;;;;10.63;3.15;;;19.40;38.00;;;;;;1055169;28;20032;-84
2022/03/03 15:06:05;;;;;;;8.93;2.63;;;19.30;37.70;;;;;;1054657;28;20024;-82
2022/03/03 15:06:36;;;;;;;18.95;4.07;;;19.30;38.10;;;;;;1050701;28;20037;-85
2022/03/03 15:07:10;;;;;;;7.10;2.72;;;19.30;37.00;;;;;;1050557;28;20086;-82
2022/03/03 15:07:42;;;;;;;7.95;3.35;;;19.30;38.30;;;;;;1051721;28;20029;-82
2022/03/03 15:08:14;;;;;;;6.03;2.95;;;19.30;37.00;;;;;;1054870;28;20071;-81
2022/03/03 15:08:45;;;;;;;11.07;2.85;;;19.30;36.10;;;;;;1054621;28;20016;-82
2022/03/03 15:09:16;;;;;;;9.32;2.25;;;19.30;36.60;;;;;;1054237;28;20096;-82
2022/03/03 15:09:47;;;;;;;6.20;2.65;;;19.30;36.60;;;;;;1054516;28;20120;-83
2022/03/03 15:10:18;;;;;;;6.90;3.17;;;19.30;37.30;;;;;;1056131;28;20024;-85
2022/03/03 15:10:49;;;;;;;9.25;2.78;;;19.30;37.80;;;;;;1056566;28;20028;-84
2022/03/03 15:11:20;;;;;;;8.88;3.00;;;19.30;37.60;;;;;;1053902;28;20062;-81
2022/03/03 15:11:51;;;;;;;8.90;2.88;;;19.30;36.50;;;;;;1050484;28;20016;-84
2022/03/03 15:12:21;;;;;;;8.70;2.75;;;19.30;37.10;;;;;;1047072;28;20029;-81
2022/03/03 15:12:53;;;;;;;8.65;2.83;;;19.30;36.90;;;;;;1051456;28;20021;-83
2022/03/03 15:13:28;;;;;;;9.65;3.03;;;19.30;37.70;;;;;;1055350;28;20247;-83
2022/03/03 15:14:00;;;;;;;8.63;2.17;;;19.40;37.80;;;;;;1055651;28;20012;-81
2022/03/03 15:14:31;;;;;;;6.03;2.95;;;19.40;37.80;;;;;;1057030;28;20020;-80
2022/03/03 15:15:03;;;;;;;7.00;2.50;;;19.40;37.40;;;;;;1050218;28;20036;-82
2022/03/03 15:15:33;;;;;;;9.15;2.40;;;19.40;37.40;;;;;;1051169;28;20088;-84
2022/03/03 15:16:04;;;;;;;6.95;2.53;;;19.40;37.20;;;;;;1055797;28;20032;-84
2022/03/03 15:16:35;;;;;;;6.45;2.55;;;19.50;37.30;;;;;;1052263;28;20029;-84
2022/03/03 15:17:06;;;;;;;5.57;2.22;;;19.50;37.30;;;;;;1056688;28;20112;-85
2022/03/03 15:17:37;;;;;;;8.77;2.42;;;19.50;37.20;;;;;;1055948;28;20020;-85
2022/03/03 15:18:08;;;;;;;6.10;2.70;;;19.50;37.20;;;;;;1055943;28;20028;-84
2022/03/03 15:18:39;;;;;;;7.00;2.17;;;19.60;37.10;;;;;;1052390;28;20024;-82
2022/03/03 15:19:09;;;;;;;10.90;2.63;;;19.60;37.20;;;;;;1054131;28;20103;-83
2022/03/03 15:19:40;;;;;;;6.28;2.03;;;19.60;37.20;;;;;;1051622;28;20119;-83
2022/03/03 15:20:12;;;;;;;8.43;2.22;;;19.60;37.30;;;;;;1052180;28;20032;-86
2022/03/03 15:20:42;;;;;;;8.40;2.50;;;19.60;37.20;;;;;;1056262;28;20027;-85
2022/03/03 15:21:13;;;;;;;5.10;1.90;;;19.70;37.40;;;;;;1057149;28;20020;-84
2022/03/03 15:21:44;;;;;;;15.75;3.28;;;19.70;37.40;;;;;;1056309;28;20020;-85
2022/03/03 15:22:15;;;;;;;6.93;3.00;;;19.70;37.30;;;;;;1056162;28;20099;-82
2022/03/03 15:22:45;;;;;;;4.95;2.58;;;19.70;37.40;;;;;;1056546;28;20024;-83
2022/03/03 15:23:16;;;;;;;11.38;2.60;;;19.80;37.60;;;;;;1056357;28;20167;-83
2022/03/03 15:23:47;;;;;;;5.28;2.10;;;19.80;37.70;;;;;;1055358;28;20017;-82
2022/03/03 15:24:18;;;;;;;9.23;2.38;;;19.80;37.70;;;;;;1055895;28;20072;-83
2022/03/03 15:24:48;;;;;;;9.70;2.50;;;19.80;37.70;;;;;;1056075;28;20040;-82
2022/03/03 15:25:19;;;;;;;11.85;2.42;;;19.80;37.80;;;;;;1056156;28;20020;-83
2022/03/03 15:25:50;;;;;;;8.93;2.40;;;19.90;37.90;;;;;;1055944;28;20061;-81
2022/03/03 15:26:20;;;;;;;10.05;2.28;;;19.90;37.90;;;;;;1055631;28;20050;-83
2022/03/03 15:26:51;;;;;;;8.23;2.70;;;19.90;37.90;;;;;;1055431;28;20051;-82
2022/03/03 15:27:22;;;;;;;5.80;1.92;;;19.90;38.10;;;;;;1058186;28;20079;-85
2022/03/03 15:27:52;;;;;;;14.82;2.85;;;19.90;38.10;;;;;;1059883;28;20079;-82
2022/03/03 15:28:23;;;;;;;12.18;2.20;;;20.00;38.10;;;;;;1010712;28;20132;-84
2022/03/03 15:28:53;;;;;;;10.02;2.72;;;20.00;38.20;;;;;;1041072;28;20064;-83
2022/03/03 15:29:26;;;;;;;8.77;2.65;;;20.00;38.20;;;;;;1042439;28;20029;-84
2022/03/03 15:29:59;;;;;;;7.90;2.08;;;20.00;38.20;;;;;;1042484;28;20601;-84
2022/03/03 15:30:30;;;;;;;9.07;2.58;;;20.10;38.20;;;;;;1046504;28;20555;-85
2022/03/03 15:31:01;;;;;;;5.72;2.80;;;20.00;38.20;;;;;;1049609;28;20017;-83
2022/03/03 15:31:31;;;;;;;6.22;1.67;;;20.10;38.30;;;;;;1047202;28;20030;-84
2022/03/03 15:32:03;;;;;;;6.70;2.60;;;20.10;38.30;;;;;;1047323;28;20022;-84
2022/03/03 15:32:34;;;;;;;6.60;2.00;;;20.10;38.30;;;;;;1044740;28;20029;-82
2022/03/03 15:33:04;;;;;;;8.27;2.20;;;20.10;38.40;;;;;;1047326;28;20014;-82
2022/03/03 15:36:52;;;;;;;5.57;2.22;;;20.30;38.80;;;;;;1051207;28;20036;-84
2022/03/03 15:37:23;;;;;;;19.20;2.97;;;20.30;38.80;;;;;;1051371;28;20017;-84
2022/03/03 15:37:54;;;;;;;8.52;2.40;;;20.30;38.80;;;;;;1051503;28;20116;-83
2022/03/03 15:38:24;;;;;;;8.65;1.90;;;20.40;39.00;;;;;;1051338;28;20045;-84
2022/03/03 15:38:55;;;;;;;8.77;2.03;;;20.30;38.90;;;;;;1051922;28;20044;-85
2022/03/03 15:39:27;;;;;;;11.80;1.58;;;20.40;38.90;;;;;;1046697;28;20034;-83
2022/03/03 15:39:58;;;;;;;8.13;2.63;;;20.40;38.90;;;;;;1044272;28;20014;-88
2022/03/03 15:40:29;;;;;;;7.57;2.22;;;20.40;38.90;;;;;;1044162;28;20005;-83
2022/03/03 15:40:59;;;;;;;6.63;2.10;;;20.40;38.90;;;;;;1042982;28;20072;-88
2022/03/03 15:41:30;;;;;;;18.60;2.78;;;20.40;38.90;;;;;;1046182;28;20029;-87
2022/03/03 15:42:03;;;;;;;9.10;1.98;;;20.50;39.10;;;;;;1039244;28;20006;-85
2022/03/03 15:42:33;;;;;;;11.38;2.40;;;20.50;39.10;;;;;;1039973;28;20005;-84
2022/03/03 15:43:04;;;;;;;13.23;2.78;;;20.50;39.20;;;;;;1048056;28;20089;-84
2022/03/03 15:43:34;;;;;;;11.00;2.10;;;20.50;39.10;;;;;;1048158;28;20048;-84
2022/03/03 15:44:05;;;;;;;13.20;2.25;;;20.60;39.10;;;;;;1048289;28;20029;-86
2022/03/03 15:44:36;;;;;;;5.57;1.80;;;20.60;39.10;;;;;;1047731;28;20088;-81
2022/03/03 15:45:07;;;;;;;9.60;2.33;;;20.60;39.10;;;;;;1042113;28;20018;-82
2022/03/03 15:45:38;;;;;;;8.98;2.95;;;20.60;39.00;;;;;;1040817;28;20014;-82
2022/03/03 15:46:09;;;;;;;7.22;2.97;;;20.60;39.00;;;;;;1036741;28;20014;-80
2022/03/03 15:46:39;;;;;;;14.35;2.58;;;20.60;39.00;;;;;;1040945;28;20036;-81
2022/03/03 15:47:10;;;;;;;12.70;2.25;;;20.60;39.10;;;;;;1045766;28;20013;-84
2022/03/03 15:47:41;;;;;;;9.15;2.05;;;20.70;39.20;;;;;;1049636;28;20021;-82
2022/03/03 15:48:11;;;;;;;12.30;2.70;;;20.70;39.10;;;;;;1050185;28;20092;-84
2022/03/03 15:48:42;;;;;;;10.07;2.13;;;20.70;39.00;;;;;;1046814;28;20063;-81
2022/03/03 15:49:14;;;;;;;9.27;2.33;;;20.80;39.10;;;;;;1048126;28;20156;-82
2022/03/03 15:49:45;;;;;;;5.50;1.88;;;20.80;39.00;;;;;;1048018;28;20070;-82
2022/03/03 15:50:16;;;;;;;7.75;2.25;;;20.80;39.20;;;;;;1046431;28;20047;-84
2022/03/03 15:50:46;;;;;;;8.02;2.80;;;20.80;39.10;;;;;;1045136;28;20017;-79
2022/03/03 15:51:17;;;;;;;10.32;2.10;;;20.90;39.20;;;;;;1046226;28;20021;-81
2022/03/03 15:51:49;;;;;;;20.25;2.42;;;20.90;39.10;;;;;;1046478;28;20037;-80
2022/03/03 15:52:20;;;;;;;15.75;3.33;;;20.90;39.00;;;;;;1042427;28;20010;-81
2022/03/03 15:52:51;;;;;;;6.03;1.98;;;20.90;39.10;;;;;;1042001;28;20033;-82
2022/03/03 15:53:21;;;;;;;8.13;2.53;;;21.00;39.00;;;;;;1042185;28;20029;-81
2022/03/03 15:53:52;;;;;;;15.50;2.95;;;21.00;39.00;;;;;;1045385;28;20014;-82
2022/03/03 15:54:23;;;;;;;10.20;2.05;;;21.00;39.00;;;;;;1046011;28;20274;-79
2022/03/03 15:54:54;;;;;;;11.25;2.20;;;20.90;39.00;;;;;;1045982;28;20044;-82
2022/03/03 15:55:25;;;;;;;12.88;2.67;;;21.00;39.10;;;;;;1046089;28;20019;-81
2022/03/03 15:55:58;;;;;;;16.27;2.80;;;21.00;39.10;;;;;;1042419;28;20026;-82
2022/03/03 15:56:29;;;;;;;11.43;2.13;;;21.00;39.10;;;;;;1045935;28;20076;-82
2022/03/03 15:57:00;;;;;;;5.18;1.63;;;21.00;39.10;;;;;;1044797;28;20013;-83
2022/03/03 15:57:31;;;;;;;10.93;1.70;;;20.90;39.20;;;;;;1049200;28;20020;-83
2022/03/03 15:58:02;;;;;;;5.43;1.52;;;20.90;39.10;;;;;;1053285;28;20016;-83
2022/03/03 15:58:32;;;;;;;9.30;2.30;;;20.90;39.10;;;;;;1052390;28;20494;-83
2022/03/03 15:59:08;;;;;;;14.95;2.78;;;21.00;39.30;;;;;;1048160;28;20024;-83
2022/03/03 15:59:39;;;;;;;12.88;2.38;;;21.00;39.30;;;;;;1045231;28;20158;-82
2022/03/03 16:00:10;;;;;;;8.70;2.22;;;21.00;39.30;;;;;;1043214;28;20101;-83
2022/03/03 16:00:41;;;;;;;7.85;1.90;;;21.00;39.30;;;;;;1044595;28;20249;-83
2022/03/03 16:01:11;;;;;;;7.82;2.38;;;20.90;39.30;;;;;;1045110;28;20013;-80
2022/03/03 16:01:42;;;;;;;9.65;2.78;;;20.90;39.40;;;;;;1041251;28;20018;-85
2022/03/03 16:02:13;;;;;;;9.07;1.95;;;20.90;39.50;;;;;;1045075;28;20029;-83
2022/03/03 16:02:44;;;;;;;5.95;2.22;;;20.90;39.40;;;;;;1041573;28;20022;-83
2022/03/03 16:03:15;;;;;;;7.57;1.60;;;20.90;39.40;;;;;;1037681;28;20049;-83
2022/03/03 16:03:45;;;;;;;11.68;1.80;;;20.90;39.60;;;;;;1037381;28;20109;-81
2022/03/03 16:04:17;;;;;;;13.60;2.65;;;20.90;39.50;;;;;;1033217;28;20221;-82
2022/03/03 16:04:48;;;;;;;11.77;1.60;;;21.00;39.60;;;;;;1032844;28;20015;-83
2022/03/03 16:05:18;;;;;;;7.03;1.83;;;20.90;39.60;;;;;;1032469;28;20386;-82
2022/03/03 16:05:49;;;;;;;5.15;1.60;;;20.90;39.50;;;;;;1040203;28;20017;-85
2022/03/03 16:06:20;;;;;;;12.00;2.50;;;20.90;39.60;;;;;;1045042;28;20017;-82
2022/03/03 16:06:54;;;;;;;12.45;2.60;;;20.90;39.70;;;;;;1044934;28;20079;-83
2022/03/03 16:07:25;;;;;;;14.88;2.70;;;20.90;39.70;;;;;;1044581;28;20033;-82
2022/03/03 16:07:56;;;;;;;13.27;2.20;;;20.90;39.70;;;;;;1044938;28;20064;-80
2022/03/03 16:08:26;;;;;;;13.90;2.63;;;20.90;39.80;;;;;;1044420;28;20025;-81
2022/03/03 16:08:57;;;;;;;10.65;2.10;;;20.90;39.80;;;;;;1044338;28;20056;-82
2022/03/03 16:09:28;;;;;;;8.48;1.92;;;20.90;39.80;;;;;;1043537;28;20025;-84
2022/03/03 16:09:59;;;;;;;9.00;2.25;;;20.90;39.80;;;;;;1043754;28;20096;-83
2022/03/03 16:10:29;;;;;;;11.13;1.95;;;20.90;39.70;;;;;;1040882;28;20018;-83
2022/03/03 16:11:00;;;;;;;8.00;2.17;;;20.90;39.70;;;;;;1045524;28;20487;-85
2022/03/03 16:11:30;;;;;;;7.60;1.77;;;20.90;39.60;;;;;;1041769;28;20036;-85
2022/03/03 16:12:02;;;;;;;8.45;1.88;;;20.90;39.50;;;;;;1042153;28;20088;-82
2022/03/03 16:12:33;;;;;;;5.47;2.47;;;20.90;39.50;;;;;;1039986;28;20108;-85
2022/03/03 16:13:04;;;;;;;14.90;2.13;;;20.90;39.40;;;;;;1035071;28;20032;-83
2022/03/03 16:13:35;;;;;;;9.52;2.10;;;20.90;39.30;;;;;;1038851;28;20018;-84
2022/03/03 16:14:06;;;;;;;16.52;3.25;;;20.90;39.20;;;;;;1039115;28;20088;-82
2022/03/03 16:14:40;;;;;;;21.65;3.33;;;20.90;39.30;;;;;;1039136;28;20516;-84
2022/03/03 16:15:11;;;;;;;13.10;2.97;;;20.80;39.70;;;;;;1039392;28;20130;-85
2022/03/03 16:15:42;;;;;;;14.52;3.00;;;20.80;39.70;;;;;;1039616;28;20025;-82
2022/03/03 16:16:13;;;;;;;16.40;3.50;;;20.80;39.80;;;;;;1039306;28;20044;-83
2022/03/03 16:16:44;;;;;;;17.90;4.45;;;20.90;40.00;;;;;;1035644;28;20104;-82
2022/03/03 16:17:14;;;;;;;20.27;3.80;;;20.90;39.80;;;;;;1042013;28;20022;-84
2022/03/03 16:17:45;;;;;;;10.82;3.28;;;20.90;39.60;;;;;;1040246;28;20093;-83
2022/03/03 16:18:23;;;;;;;25.48;3.85;;;20.90;39.50;;;;;;1039264;28;20108;-85
2022/03/03 16:18:54;;;;;;;13.85;3.60;;;20.90;39.50;;;;;;1041146;28;20028;-84
2022/03/03 16:19:26;;;;;;;13.07;2.50;;;20.90;39.80;;;;;;1044350;28;20155;-84
2022/03/03 16:19:57;;;;;;;25.02;3.88;;;20.90;39.70;;;;;;1044743;28;20018;-85
2022/03/03 16:20:27;;;;;;;21.42;3.72;;;20.90;39.90;;;;;;1043794;28;20025;-85
2022/03/03 16:20:58;;;;;;;19.08;3.97;;;20.90;39.90;;;;;;1045527;28;20032;-86
2022/03/03 16:21:30;;;;;;;17.20;3.78;;;20.90;39.90;;;;;;1043588;28;20017;-88
2022/03/03 16:22:01;;;;;;;27.15;4.93;;;20.90;40.10;;;;;;1043513;28;20040;-86
2022/03/03 16:22:32;;;;;;;13.35;3.03;;;20.90;40.10;;;;;;1042818;28;20026;-86
2022/03/03 16:23:03;;;;;;;14.85;3.30;;;20.90;40.00;;;;;;1041581;28;20022;-85
2022/03/03 16:23:34;;;;;;;18.15;3.25;;;20.90;40.20;;;;;;1041976;28;20021;-85
2022/03/03 16:24:06;;;;;;;19.92;3.55;;;20.90;40.10;;;;;;1035836;28;20465;-87
2022/03/03 16:24:38;;;;;;;11.75;3.58;;;20.80;40.10;;;;;;1039298;28;20022;-86
2022/03/03 16:25:09;;;;;;;19.15;3.38;;;20.80;40.30;;;;;;1035354;28;20054;-86
2022/03/03 16:25:39;;;;;;;15.77;2.70;;;20.80;40.20;;;;;;1034862;28;20094;-85
2022/03/03 16:26:11;;;;;;;14.07;3.10;;;20.80;40.30;;;;;;1032132;28;20091;-85
2022/03/03 16:26:43;;;;;;;15.52;2.90;;;20.80;40.40;;;;;;1033666;28;20055;-87
2022/03/03 16:27:18;;;;;;;23.50;3.20;;;20.80;40.40;;;;;;1040121;28;20014;-87
2022/03/03 16:27:49;;;;;;;14.10;2.65;;;20.80;40.60;;;;;;1042884;28;20022;-88
2022/03/03 16:28:19;;;;;;;19.65;3.35;;;20.80;40.60;;;;;;1039610;28;20030;-86
2022/03/03 16:28:51;;;;;;;14.68;3.40;;;20.80;40.60;;;;;;1043149;28;20006;-84
2022/03/03 16:29:24;;;;;;;17.40;3.55;;;20.80;40.70;;;;;;1036297;28;20026;-85
2022/03/03 16:29:55;;;;;;;8.00;2.85;;;20.80;40.60;;;;;;1037077;28;20030;-87
2022/03/03 16:30:27;;;;;;;17.27;3.20;;;20.80;40.70;;;;;;1035381;28;20011;-84
2022/03/03 16:31:00;;;;;;;11.82;2.92;;;20.80;40.90;;;;;;1035417;28;20018;-87
2022/03/03 16:31:58;;;;;;;8.57;2.30;;;20.80;40.70;;;;;;1035634;28;20041;-85
2022/03/03 16:32:30;;;;;;;9.85;2.25;;;20.80;40.80;;;;;;1041297;28;20022;-87
2022/03/03 16:33:04;;;;;;;24.17;3.08;;;20.80;40.90;;;;;;1039073;28;20024;-84
2022/03/03 16:33:38;;;;;;;10.30;2.70;;;20.80;40.70;;;;;;1038653;28;20037;-86
2022/03/03 16:34:18;;;;;;;10.60;2.50;;;20.80;40.80;;;;;;1040011;28;20059;-85
2022/03/03 16:34:53;;;;;;;14.60;3.08;;;20.80;40.90;;;;;;1043524;28;20017;-87
2022/03/03 16:35:24;;;;;;;20.33;2.92;;;20.80;40.90;;;;;;1044893;28;20029;-85
2022/03/03 16:35:54;;;;;;;15.32;3.35;;;20.80;41.00;;;;;;1042492;28;20026;-75
2022/03/03 16:36:25;;;;;;;9.52;2.15;;;20.80;41.00;;;;;;1040579;28;20075;-73
2022/03/03 16:36:56;;;;;;;8.65;2.28;;;20.80;41.00;;;;;;1040598;28;20140;-73
2022/03/03 16:37:27;;;;;;;11.93;3.95;;;20.80;41.00;;;;;;1040684;28;20014;-73
2022/03/03 16:37:58;;;;;;;10.77;2.65;;;20.80;41.00;;;;;;1040549;28;20101;-75
2022/03/03 16:38:28;;;;;;;16.42;2.78;;;20.80;41.20;;;;;;1040847;28;20022;-76
2022/03/03 16:38:59;;;;;;;9.60;2.65;;;20.80;41.20;;;;;;1040242;28;20018;-74
2022/03/03 16:39:30;;;;;;;12.05;3.20;;;20.80;41.30;;;;;;1040441;28;20040;-73
2022/03/03 16:40:00;;;;;;;17.13;2.53;;;20.80;41.30;;;;;;1040811;28;20487;-74
2022/03/03 16:40:31;;;;;;;20.05;2.83;;;20.70;41.30;;;;;;1040033;28;20056;-74
2022/03/03 16:41:02;;;;;;;16.88;2.47;;;20.80;41.30;;;;;;1040121;28;20052;-74
2022/03/03 16:41:33;;;;;;;16.35;2.80;;;20.80;41.60;;;;;;1040325;28;20024;-71
2022/03/03 16:42:07;;;;;;;14.40;3.58;;;20.80;41.40;;;;;;1040245;28;21283;-73
2022/03/03 16:42:38;;;;;;;17.13;2.85;;;20.80;41.50;;;;;;1040194;28;20017;-75
2022/03/03 16:43:09;;;;;;;17.65;2.85;;;20.80;41.50;;;;;;1037303;28;20026;-74
2022/03/03 16:43:39;;;;;;;12.63;2.35;;;20.80;41.40;;;;;;1040591;28;20117;-75
2022/03/03 16:44:10;;;;;;;12.23;3.08;;;20.70;42.00;;;;;;1040784;28;20567;-75
2022/03/03 16:44:43;;;;;;;17.73;2.95;;;20.70;41.50;;;;;;1040053;28;20116;-73
2022/03/03 16:45:13;;;;;;;18.55;3.47;;;20.70;41.30;;;;;;1040205;28;20018;-74
2022/03/03 16:45:44;;;;;;;15.65;4.63;;;20.70;41.50;;;;;;1040274;28;20041;-74
2022/03/03 16:46:14;;;;;;;30.55;3.70;;;20.70;41.30;;;;;;1040161;28;20091;-74
2022/03/03 16:46:45;;;;;;;20.40;3.95;;;20.70;41.40;;;;;;1041256;28;20021;-86
2022/03/03 16:47:17;;;;;;;20.23;3.47;;;20.70;41.30;;;;;;1043137;28;20105;-85
2022/03/03 16:47:56;;;;;;;19.70;3.00;;;20.70;41.40;;;;;;1043310;28;20178;-84
2022/03/03 16:48:27;;;;;;;23.13;3.47;;;20.70;41.50;;;;;;1043688;28;20018;-87
2022/03/03 16:48:57;;;;;;;31.15;3.55;;;20.70;41.40;;;;;;1043627;28;20029;-81
2022/03/03 16:49:28;;;;;;;20.33;3.22;;;20.70;41.30;;;;;;1038904;28;20025;-80
2022/03/03 16:49:58;;;;;;;20.10;3.63;;;20.70;41.30;;;;;;1034996;28;20018;-83
2022/03/03 16:50:29;;;;;;;23.90;3.88;;;20.70;41.30;;;;;;1035093;28;20030;-81
2022/03/03 16:51:00;;;;;;;39.22;3.75;;;20.70;41.40;;;;;;1036725;28;20018;-82
2022/03/03 16:51:36;;;;;;;25.45;3.67;;;20.70;41.40;;;;;;1043343;28;20049;-83
2022/03/03 16:52:11;;;;;;;25.48;4.30;;;20.70;41.30;;;;;;1042878;28;20014;-82
2022/03/03 16:52:41;;;;;;;34.80;5.80;;;20.70;41.50;;;;;;1040621;28;20049;-83
2022/03/03 16:53:12;;;;;;;22.90;3.92;;;20.70;41.40;;;;;;1041171;28;20044;-81
2022/03/03 16:53:43;;;;;;;45.40;4.60;;;20.70;41.50;;;;;;1039097;28;20051;-82
2022/03/03 16:54:13;;;;;;;30.50;3.92;;;20.70;41.60;;;;;;1039899;28;20029;-82
2022/03/03 16:54:46;;;;;;;21.90;5.28;;;20.70;41.50;;;;;;1043424;28;20021;-84
2022/03/03 16:55:17;;;;;;;31.05;3.78;;;20.70;41.40;;;;;;1043342;28;20541;-84
2022/03/03 16:55:47;;;;;;;62.10;6.13;;;20.70;41.40;;;;;;1040775;28;20025;-84
2022/03/03 16:56:19;;;;;;;39.13;5.82;;;20.70;41.50;;;;;;1042109;28;20022;-83
2022/03/03 16:56:49;;;;;;;29.98;4.63;;;20.70;41.30;;;;;;1042737;28;20051;-79
2022/03/03 16:57:21;;;;;;;19.85;3.20;;;20.70;41.40;;;;;;1042592;28;20021;-82
2022/03/03 16:57:52;;;;;;;40.88;3.90;;;20.70;41.50;;;;;;1042763;28;20014;-81
2022/03/03 16:58:22;;;;;;;18.42;3.42;;;20.70;41.40;;;;;;1042680;28;20018;-81
2022/03/03 16:58:53;;;;;;;24.63;3.83;;;20.70;41.50;;;;;;1042474;28;20014;-82
2022/03/03 16:59:24;;;;;;;36.53;5.35;;;20.70;41.50;;;;;;1040140;28;20028;-85
2022/03/03 16:59:54;;;;;;;38.95;5.57;;;20.70;41.40;;;;;;1042799;28;20018;-86
2022/03/03 17:00:27;;;;;;;24.50;3.15;;;20.70;41.40;;;;;;1042368;28;20018;-82
2022/03/03 17:00:58;;;;;;;19.13;3.03;;;20.70;41.50;;;;;;1042214;28;20013;-85
2022/03/03 17:01:29;;;;;;;23.33;3.45;;;20.70;41.50;;;;;;1042420;28;20025;-83
2022/03/03 17:02:03;;;;;;;20.92;3.03;;;20.70;41.60;;;;;;1042145;28;20021;-84
2022/03/03 17:02:34;;;;;;;31.67;3.63;;;20.70;41.50;;;;;;1042033;28;20077;-86
2022/03/03 17:03:05;;;;;;;16.30;3.35;;;20.70;41.50;;;;;;1042478;28;20017;-85
2022/03/03 17:03:36;;;;;;;21.75;3.20;;;20.70;41.70;;;;;;1041989;28;20033;-85
2022/03/03 17:04:08;;;;;;;18.05;3.55;;;20.70;41.70;;;;;;1042236;28;20311;-86
2022/03/03 17:04:39;;;;;;;29.38;3.42;;;20.70;41.90;;;;;;1038181;28;20094;-86
2022/03/03 17:05:09;;;;;;;13.00;2.65;;;20.70;41.60;;;;;;1038158;28;20029;-86
2022/03/03 17:05:40;;;;;;;18.77;3.78;;;20.70;41.60;;;;;;1042368;28;20112;-86
2022/03/03 17:06:10;;;;;;;15.35;2.90;;;20.70;41.50;;;;;;1037822;28;20017;-83
2022/03/03 17:06:45;;;;;;;20.45;2.60;;;20.70;41.50;;;;;;1042850;28;20017;-83
2022/03/03 17:07:15;;;;;;;26.75;4.10;;;20.70;41.40;;;;;;1038581;28;20021;-85
2022/03/03 17:07:46;;;;;;;37.60;4.10;;;20.70;41.40;;;;;;1035043;28;20018;-85
2022/03/03 17:08:17;;;;;;;24.73;4.30;;;20.70;41.30;;;;;;1038130;28;20014;-86
2022/03/03 17:08:47;;;;;;;20.58;4.68;;;20.80;41.40;;;;;;1038434;28;20088;-86
2022/03/03 17:09:18;;;;;;;18.27;3.42;;;20.80;41.40;;;;;;1042563;28;20100;-85
2022/03/03 17:09:49;;;;;;;13.48;3.17;;;20.80;41.40;;;;;;1042738;28;20077;-86
2022/03/03 17:10:20;;;;;;;14.88;3.20;;;20.80;41.30;;;;;;1042335;28;20060;-83
2022/03/03 17:10:54;;;;;;;17.77;3.20;;;20.80;41.30;;;;;;1038568;28;20029;-85
2022/03/03 17:11:25;;;;;;;24.08;3.63;;;20.80;41.20;;;;;;1038260;28;20045;-83
2022/03/03 17:11:56;;;;;;;18.23;3.40;;;20.80;41.10;;;;;;1039659;28;20014;-86
2022/03/03 17:12:28;;;;;;;22.40;2.88;;;20.80;41.20;;;;;;1038823;28;20025;-84
2022/03/03 17:12:59;;;;;;;27.38;4.00;;;20.80;41.10;;;;;;1038909;28;20073;-84
2022/03/03 17:13:30;;;;;;;23.23;3.85;;;20.80;41.20;;;;;;1042532;28;20017;-84
2022/03/03 17:14:02;;;;;;;24.85;3.70;;;20.80;41.10;;;;;;1042191;28;20049;-84
2022/03/03 17:14:33;;;;;;;19.60;4.10;;;20.80;41.00;;;;;;1043469;28;20191;-82
2022/03/03 17:15:04;;;;;;;19.92;3.00;;;20.80;41.10;;;;;;1043511;28;20010;-85
2022/03/03 17:15:35;;;;;;;19.02;3.42;;;20.80;41.00;;;;;;1043147;28;20014;-84
2022/03/03 17:16:09;;;;;;;16.83;2.53;;;20.80;40.90;;;;;;1042298;28;20040;-84
2022/03/03 17:16:40;;;;;;;24.13;4.00;;;20.90;40.90;;;;;;1037711;28;20014;-83
2022/03/03 17:17:11;;;;;;;25.63;4.03;;;20.90;40.90;;;;;;1034384;28;20022;-84
2022/03/03 17:17:41;;;;;;;18.90;3.67;;;20.90;40.90;;;;;;1035244;28;20014;-82
2022/03/03 17:18:12;;;;;;;20.00;5.03;;;20.90;40.90;;;;;;1038856;28;20021;-86
2022/03/03 17:18:45;;;;;;;22.63;3.17;;;20.90;40.90;;;;;;1045192;28;20021;-87
2022/03/03 17:19:16;;;;;;;16.60;2.83;;;20.90;40.90;;;;;;1043117;28;20010;-86
2022/03/03 17:19:46;;;;;;;16.98;3.00;;;20.90;40.90;;;;;;1042968;28;20084;-84
2022/03/03 17:20:20;;;;;;;30.08;3.00;;;20.90;40.80;;;;;;1039258;28;20029;-85
2022/03/03 17:20:51;;;;;;;22.98;3.60;;;20.90;40.80;;;;;;1038474;28;20435;-85
2022/03/03 17:21:22;;;;;;;16.98;2.35;;;20.90;40.80;;;;;;1038644;28;20088;-84
2022/03/03 17:21:53;;;;;;;11.52;2.70;;;20.90;40.70;;;;;;1038736;28;20018;-84
2022/03/03 17:22:24;;;;;;;19.92;3.97;;;20.90;40.70;;;;;;1038540;28;20041;-86
2022/03/03 17:22:55;;;;;;;28.20;3.55;;;20.90;40.70;;;;;;1038195;28;20018;-83
2022/03/03 17:23:25;;;;;;;22.67;3.30;;;20.90;40.80;;;;;;1037525;28;20022;-83
2022/03/03 17:23:56;;;;;;;42.33;5.78;;;20.90;40.90;;;;;;1038535;28;20627;-83
2022/03/03 17:24:30;;;;;;;21.15;4.10;;;20.90;40.90;;;;;;1038899;28;20025;-82
2022/03/03 17:25:00;;;;;;;32.33;4.15;;;20.90;41.10;;;;;;1038329;28;20022;-85
2022/03/03 17:25:31;;;;;;;17.05;3.50;;;20.80;40.90;;;;;;1041949;28;20025;-85
2022/03/03 17:26:02;;;;;;;27.85;3.75;;;20.80;41.00;;;;;;1042415;28;20091;-84
2022/03/03 17:26:33;;;;;;;23.73;5.30;;;20.90;41.10;;;;;;1042079;28;20033;-83
2022/03/03 17:27:05;;;;;;;22.38;4.18;;;20.80;41.00;;;;;;1043278;28;20022;-83
2022/03/03 17:27:37;;;;;;;26.00;3.40;;;20.80;41.20;;;;;;1039793;28;20101;-84
2022/03/03 17:28:10;;;;;;;19.85;3.95;;;20.80;41.20;;;;;;1041836;28;20415;-84
2022/03/03 17:28:42;;;;;;;28.23;4.03;;;20.80;41.30;;;;;;1041393;28;20021;-84
2022/03/03 17:29:13;;;;;;;27.55;4.45;;;20.70;41.30;;;;;;1041079;28;20025;-84
2022/03/03 17:29:44;;;;;;;20.13;2.70;;;20.70;41.30;;;;;;1041688;28;20232;-84
2022/03/03 17:30:14;;;;;;;15.40;3.03;;;20.70;41.30;;;;;;1042769;28;20120;-84
2022/03/03 17:30:45;;;;;;;19.45;3.17;;;20.70;41.40;;;;;;1042892;28;20022;-83
2022/03/03 17:31:21;;;;;;;17.08;2.97;;;20.70;41.60;;;;;;1038423;28;20026;-84
2022/03/03 17:31:53;;;;;;;14.30;2.97;;;20.70;41.60;;;;;;1037954;28;20021;-84
2022/03/03 17:32:23;;;;;;;18.35;3.22;;;20.70;41.50;;;;;;1032827;28;20051;-84
2022/03/03 17:32:59;;;;;;;16.77;3.63;;;20.70;41.50;;;;;;1036590;28;20022;-83
2022/03/03 17:33:33;;;;;;;30.52;3.67;;;20.70;41.40;;;;;;1039870;28;20018;-84
2022/03/03 17:34:08;;;;;;;26.23;3.80;;;20.70;41.40;;;;;;1040883;28;20165;-84
2022/03/03 17:34:39;;;;;;;11.35;2.85;;;20.70;41.40;;;;;;1043103;28;20021;-82
2022/03/03 17:35:10;;;;;;;18.45;3.17;;;20.60;41.40;;;;;;1040105;28;20105;-83